METAR Data

Data at: 0240 UTC 29 Nov 2020

KOKC 290152Z 25004KT 7SM -RA BKN055 OVC070 06/04 A3017 RMK AO2 SLP223 P0002 T00560039
KOKC 290052Z VRB04KT 10SM -RA OVC060 07/03 A3012 RMK AO2 RAB22 SLP204 P0000 T00670028
KOKC 282352Z 36003KT 10SM FEW075 OVC100 08/01 A3014 RMK AO2 SLP210 T00780006 10083 20072 55002
KOKC 282252Z 03009KT 10SM SCT070 BKN100 OVC200 08/00 A3012 RMK AO2 PRESFR SLP205 CBMAM SW T00780000
KOKC 282152Z 02011KT 10SM SCT070 BKN100 BKN250 08/00 A3011 RMK AO2 PRESFR SLP202 T00780000
KOKC 282052Z 03006KT 10SM BKN110 OVC150 08/M01 A3014 RMK AO2 SLP212 T00781006 58033

KOKC 282333Z 2900/2924 01007KT P6SM OVC090
  TEMPO 2900/2904 4SM -RA OVC040
  FM290400 36007KT P6SM OVC050
  TEMPO 2904/2908 4SM -RA OVC025
  FM290800 36008KT P6SM OVC040
  PROB30 2909/2915 3SM -RA BR OVC015
  FM291800 32012G19KT P6SM OVC050